sensor_id;sensor_type;location;lat;lon;timestamp;pressure;altitude;pressure_sealevel;temperature;humidity
75428;BME280;64008;55.612;37.698;2022-10-18T00:00:01;100110.28;;;6.76;90.69
75428;BME280;64008;55.612;37.698;2022-10-18T00:02:26;100098.28;;;6.75;91.69
75428;BME280;64008;55.612;37.698;2022-10-18T00:04:52;100100.06;;;6.71;91.13
75428;BME280;64008;55.612;37.698;2022-10-18T00:07:17;100095.66;;;6.70;90.93
75428;BME280;64008;55.612;37.698;2022-10-18T00:09:42;100090.41;;;6.69;92.55
75428;BME280;64008;55.612;37.698;2022-10-18T00:12:08;100086.28;;;6.66;91.73
75428;BME280;64008;55.612;37.698;2022-10-18T00:14:34;100078.53;;;6.63;92.49
75428;BME280;64008;55.612;37.698;2022-10-18T00:16:59;100064.94;;;6.62;92.49
75428;BME280;64008;55.612;37.698;2022-10-18T00:19:25;100060.31;;;6.57;91.94
75428;BME280;64008;55.612;37.698;2022-10-18T00:21:50;100061.31;;;6.61;91.86
75428;BME280;64008;55.612;37.698;2022-10-18T00:24:16;100062.47;;;6.60;91.72
75428;BME280;64008;55.612;37.698;2022-10-18T00:26:41;100078.53;;;6.63;91.84
75428;BME280;64008;55.612;37.698;2022-10-18T00:29:12;100059.47;;;6.65;91.14
75428;BME280;64008;55.612;37.698;2022-10-18T00:31:38;100060.97;;;6.63;91.11
75428;BME280;64008;55.612;37.698;2022-10-18T00:34:06;100047.81;;;6.63;90.97
75428;BME280;64008;55.612;37.698;2022-10-18T00:36:34;100053.56;;;6.67;91.54
75428;BME280;64008;55.612;37.698;2022-10-18T00:39:00;100055.03;;;6.73;91.57
75428;BME280;64008;55.612;37.698;2022-10-18T00:41:28;100050.78;;;6.75;92.26
75428;BME280;64008;55.612;37.698;2022-10-18T00:46:34;100045.69;;;6.77;90.99
75428;BME280;64008;55.612;37.698;2022-10-18T00:49:05;100041.25;;;6.76;91.03
75428;BME280;64008;55.612;37.698;2022-10-18T00:51:56;100037.28;;;6.77;91.12
75428;BME280;64008;55.612;37.698;2022-10-18T00:54:23;100029.22;;;6.76;90.50
75428;BME280;64008;55.612;37.698;2022-10-18T00:56:49;100033.19;;;6.75;89.88
75428;BME280;64008;55.612;37.698;2022-10-18T00:59:16;100023.66;;;6.76;90.31
75428;BME280;64008;55.612;37.698;2022-10-18T01:01:43;100014.75;;;6.74;90.67
75428;BME280;64008;55.612;37.698;2022-10-18T01:04:09;100030.06;;;6.76;89.85
75428;BME280;64008;55.612;37.698;2022-10-18T01:09:38;100015.41;;;6.71;90.46
75428;BME280;64008;55.612;37.698;2022-10-18T01:12:19;100013.97;;;6.65;89.34
75428;BME280;64008;55.612;37.698;2022-10-18T01:24:23;100015.28;;;6.67;90.39
75428;BME280;64008;55.612;37.698;2022-10-18T01:27:08;100006.91;;;6.67;90.54
75428;BME280;64008;55.612;37.698;2022-10-18T01:32:36;100002.97;;;6.60;89.87
75428;BME280;64008;55.612;37.698;2022-10-18T01:35:17;100004.75;;;6.56;90.46
75428;BME280;64008;55.612;37.698;2022-10-18T01:37:49;100011.03;;;6.52;90.35
75428;BME280;64008;55.612;37.698;2022-10-18T01:43:23;99985.72;;;6.49;90.14
75428;BME280;64008;55.612;37.698;2022-10-18T01:45:53;99989.66;;;6.48;90.70
75428;BME280;64008;55.612;37.698;2022-10-18T01:48:20;99996.25;;;6.52;90.74
75428;BME280;64008;55.612;37.698;2022-10-18T01:50:46;99998.34;;;6.55;90.63
75428;BME280;64008;55.612;37.698;2022-10-18T01:53:23;99989.00;;;6.60;89.92
75428;BME280;64008;55.612;37.698;2022-10-18T01:56:10;99977.50;;;6.61;90.12
75428;BME280;64008;55.612;37.698;2022-10-18T02:06:47;99970.91;;;6.57;90.40
75428;BME280;64008;55.612;37.698;2022-10-18T02:09:28;99978.13;;;6.58;90.76
75428;BME280;64008;55.612;37.698;2022-10-18T02:11:56;99965.31;;;6.57;89.72
75428;BME280;64008;55.612;37.698;2022-10-18T02:14:24;99956.13;;;6.57;89.30
75428;BME280;64008;55.612;37.698;2022-10-18T02:16:53;99955.78;;;6.58;90.09
75428;BME280;64008;55.612;37.698;2022-10-18T02:19:28;99968.13;;;6.57;89.83
75428;BME280;64008;55.612;37.698;2022-10-18T02:21:57;99963.34;;;6.58;90.11
75428;BME280;64008;55.612;37.698;2022-10-18T02:24:30;99960.88;;;6.56;89.71
75428;BME280;64008;55.612;37.698;2022-10-18T02:26:57;99957.94;;;6.52;89.55
75428;BME280;64008;55.612;37.698;2022-10-18T02:29:23;99960.41;;;6.54;88.97
75428;BME280;64008;55.612;37.698;2022-10-18T02:31:51;99966.31;;;6.52;89.59
75428;BME280;64008;55.612;37.698;2022-10-18T02:34:23;99959.09;;;6.51;88.61
75428;BME280;64008;55.612;37.698;2022-10-18T02:36:53;99945.47;;;6.50;89.56
75428;BME280;64008;55.612;37.698;2022-10-18T02:39:29;99948.25;;;6.50;89.62
75428;BME280;64008;55.612;37.698;2022-10-18T02:41:55;99932.31;;;6.50;89.46
75428;BME280;64008;55.612;37.698;2022-10-18T02:44:21;99936.13;;;6.46;89.49
75428;BME280;64008;55.612;37.698;2022-10-18T02:46:47;99931.66;;;6.45;89.77
75428;BME280;64008;55.612;37.698;2022-10-18T02:49:13;99928.06;;;6.44;90.15
75428;BME280;64008;55.612;37.698;2022-10-18T02:51:38;99924.13;;;6.45;89.83
75428;BME280;64008;55.612;37.698;2022-10-18T02:54:04;99928.88;;;6.45;89.27
75428;BME280;64008;55.612;37.698;2022-10-18T02:56:29;99915.38;;;6.47;89.22
75428;BME280;64008;55.612;37.698;2022-10-18T02:58:55;99920.19;;;6.46;89.63
75428;BME280;64008;55.612;37.698;2022-10-18T03:01:21;99907.00;;;6.47;89.39
75428;BME280;64008;55.612;37.698;2022-10-18T03:03:46;99898.63;;;6.47;89.61
75428;BME280;64008;55.612;37.698;2022-10-18T03:06:12;99893.53;;;6.49;89.75
75428;BME280;64008;55.612;37.698;2022-10-18T03:08:37;99896.19;;;6.45;89.40
75428;BME280;64008;55.612;37.698;2022-10-18T03:11:03;99885.16;;;6.40;89.85
75428;BME280;64008;55.612;37.698;2022-10-18T03:13:28;99892.56;;;6.45;89.61
75428;BME280;64008;55.612;37.698;2022-10-18T03:15:54;99897.81;;;6.46;89.29
75428;BME280;64008;55.612;37.698;2022-10-18T03:18:19;99890.25;;;6.47;89.25
75428;BME280;64008;55.612;37.698;2022-10-18T03:20:45;99874.31;;;6.47;89.44
75428;BME280;64008;55.612;37.698;2022-10-18T03:23:10;99863.50;;;6.46;88.87
75428;BME280;64008;55.612;37.698;2022-10-18T03:25:36;99869.91;;;6.46;89.23
75428;BME280;64008;55.612;37.698;2022-10-18T03:28:01;99867.09;;;6.46;88.97
75428;BME280;64008;55.612;37.698;2022-10-18T03:30:27;99863.13;;;6.47;88.89
75428;BME280;64008;55.612;37.698;2022-10-18T03:32:52;99847.56;;;6.46;88.71
75428;BME280;64008;55.612;37.698;2022-10-18T03:35:20;99845.91;;;6.45;88.23
75428;BME280;64008;55.612;37.698;2022-10-18T03:37:47;99844.25;;;6.44;89.15
75428;BME280;64008;55.612;37.698;2022-10-18T03:40:12;99839.66;;;6.40;88.79
75428;BME280;64008;55.612;37.698;2022-10-18T03:42:37;99838.69;;;6.36;89.26
75428;BME280;64008;55.612;37.698;2022-10-18T03:45:03;99831.81;;;6.33;88.90
75428;BME280;64008;55.612;37.698;2022-10-18T03:47:29;99822.78;;;6.28;89.35
75428;BME280;64008;55.612;37.698;2022-10-18T03:49:54;99819.38;;;6.22;89.31
75428;BME280;64008;55.612;37.698;2022-10-18T03:52:20;99822.16;;;6.22;89.70
75428;BME280;64008;55.612;37.698;2022-10-18T03:54:45;99818.38;;;6.18;90.01
75428;BME280;64008;55.612;37.698;2022-10-18T03:57:11;99812.16;;;6.21;90.21
75428;BME280;64008;55.612;37.698;2022-10-18T03:59:36;99813.09;;;6.25;90.07
75428;BME280;64008;55.612;37.698;2022-10-18T04:02:02;99795.84;;;6.23;89.69
75428;BME280;64008;55.612;37.698;2022-10-18T04:04:27;99792.09;;;6.19;89.85
75428;BME280;64008;55.612;37.698;2022-10-18T04:06:53;99793.44;;;6.13;89.94
75428;BME280;64008;55.612;37.698;2022-10-18T04:09:18;99798.69;;;6.14;89.86
75428;BME280;64008;55.612;37.698;2022-10-18T04:11:44;99783.56;;;6.15;90.49
75428;BME280;64008;55.612;37.698;2022-10-18T04:14:09;99792.44;;;6.18;91.23
75428;BME280;64008;55.612;37.698;2022-10-18T04:16:35;99794.25;;;6.22;91.35
75428;BME280;64008;55.612;37.698;2022-10-18T04:19:00;99790.28;;;6.23;90.69
75428;BME280;64008;55.612;37.698;2022-10-18T04:21:26;99789.94;;;6.25;91.67
75428;BME280;64008;55.612;37.698;2022-10-18T04:23:51;99783.69;;;6.28;91.05
75428;BME280;64008;55.612;37.698;2022-10-18T04:26:16;99781.03;;;6.31;91.13
75428;BME280;64008;55.612;37.698;2022-10-18T04:28:42;99778.25;;;6.31;91.00
75428;BME280;64008;55.612;37.698;2022-10-18T04:31:09;99783.50;;;6.33;90.51
75428;BME280;64008;55.612;37.698;2022-10-18T04:33:35;99776.09;;;6.37;90.65
75428;BME280;64008;55.612;37.698;2022-10-18T04:36:00;99769.00;;;6.39;91.40
75428;BME280;64008;55.612;37.698;2022-10-18T04:38:26;99770.50;;;6.45;91.41
75428;BME280;64008;55.612;37.698;2022-10-18T04:40:51;99766.34;;;6.51;91.18
75428;BME280;64008;55.612;37.698;2022-10-18T04:43:17;99759.59;;;6.52;91.52
75428;BME280;64008;55.612;37.698;2022-10-18T04:45:45;99760.56;;;6.57;91.00
75428;BME280;64008;55.612;37.698;2022-10-18T04:48:13;99759.56;;;6.61;90.59
75428;BME280;64008;55.612;37.698;2022-10-18T04:50:39;99754.59;;;6.67;90.48
75428;BME280;64008;55.612;37.698;2022-10-18T04:53:04;99743.22;;;6.72;90.67
75428;BME280;64008;55.612;37.698;2022-10-18T04:55:30;99745.34;;;6.75;90.61
75428;BME280;64008;55.612;37.698;2022-10-18T04:57:55;99750.09;;;6.74;90.87
75428;BME280;64008;55.612;37.698;2022-10-18T05:00:21;99743.69;;;6.74;90.47
75428;BME280;64008;55.612;37.698;2022-10-18T05:02:46;99737.44;;;6.77;90.43
75428;BME280;64008;55.612;37.698;2022-10-18T05:05:12;99732.78;;;6.81;89.75
75428;BME280;64008;55.612;37.698;2022-10-18T05:07:38;99723.03;;;6.87;89.76
75428;BME280;64008;55.612;37.698;2022-10-18T05:10:04;99725.31;;;6.94;90.12
75428;BME280;64008;55.612;37.698;2022-10-18T05:12:29;99716.38;;;7.00;89.96
75428;BME280;64008;55.612;37.698;2022-10-18T05:14:55;99714.53;;;7.04;90.22
75428;BME280;64008;55.612;37.698;2022-10-18T05:17:20;99724.72;;;7.09;90.37
75428;BME280;64008;55.612;37.698;2022-10-18T05:19:46;99725.16;;;7.11;90.06
75428;BME280;64008;55.612;37.698;2022-10-18T05:22:11;99726.13;;;7.15;90.19
75428;BME280;64008;55.612;37.698;2022-10-18T05:24:37;99733.72;;;7.14;89.81
75428;BME280;64008;55.612;37.698;2022-10-18T05:27:02;99741.16;;;7.10;89.68
75428;BME280;64008;55.612;37.698;2022-10-18T05:29:28;99734.75;;;7.10;89.80
75428;BME280;64008;55.612;37.698;2022-10-18T05:31:53;99735.91;;;7.09;89.92
75428;BME280;64008;55.612;37.698;2022-10-18T05:34:19;99739.97;;;7.11;89.49
75428;BME280;64008;55.612;37.698;2022-10-18T05:36:45;99744.88;;;7.14;90.24
75428;BME280;64008;55.612;37.698;2022-10-18T05:39:11;99743.03;;;7.18;90.16
75428;BME280;64008;55.612;37.698;2022-10-18T05:41:36;99733.75;;;7.26;89.68
75428;BME280;64008;55.612;37.698;2022-10-18T05:44:05;99741.25;;;7.35;90.01
75428;BME280;64008;55.612;37.698;2022-10-18T05:46:31;99741.41;;;7.38;89.49
75428;BME280;64008;55.612;37.698;2022-10-18T05:48:57;99748.03;;;7.34;89.21
75428;BME280;64008;55.612;37.698;2022-10-18T05:51:22;99738.34;;;7.31;88.41
75428;BME280;64008;55.612;37.698;2022-10-18T05:53:48;99743.59;;;7.33;89.18
75428;BME280;64008;55.612;37.698;2022-10-18T05:56:13;99727.75;;;7.37;88.91
75428;BME280;64008;55.612;37.698;2022-10-18T05:58:40;99731.84;;;7.39;89.72
75428;BME280;64008;55.612;37.698;2022-10-18T06:01:07;99720.44;;;7.44;88.82
75428;BME280;64008;55.612;37.698;2022-10-18T06:03:33;99713.34;;;7.47;89.75
75428;BME280;64008;55.612;37.698;2022-10-18T06:08:29;99706.09;;;7.46;88.81
75428;BME280;64008;55.612;37.698;2022-10-18T06:10:54;99704.47;;;7.45;89.44
75428;BME280;64008;55.612;37.698;2022-10-18T06:13:20;99690.56;;;7.36;89.39
75428;BME280;64008;55.612;37.698;2022-10-18T06:15:45;99692.75;;;7.30;88.89
75428;BME280;64008;55.612;37.698;2022-10-18T06:18:11;99694.41;;;7.32;89.27
75428;BME280;64008;55.612;37.698;2022-10-18T06:20:36;99675.97;;;7.30;88.79
75428;BME280;64008;55.612;37.698;2022-10-18T06:23:02;99674.81;;;7.32;89.59
75428;BME280;64008;55.612;37.698;2022-10-18T06:25:27;99672.38;;;7.30;88.75
75428;BME280;64008;55.612;37.698;2022-10-18T06:27:52;99666.78;;;7.30;89.77
75428;BME280;64008;55.612;37.698;2022-10-18T06:30:18;99671.44;;;7.26;89.47
75428;BME280;64008;55.612;37.698;2022-10-18T06:32:43;99659.44;;;7.25;90.24
75428;BME280;64008;55.612;37.698;2022-10-18T06:35:09;99665.22;;;7.20;89.56
75428;BME280;64008;55.612;37.698;2022-10-18T06:37:34;99650.50;;;7.11;89.65
75428;BME280;64008;55.612;37.698;2022-10-18T06:40:01;99647.59;;;7.08;90.37
75428;BME280;64008;55.612;37.698;2022-10-18T06:42:27;99636.47;;;6.99;90.20
75428;BME280;64008;55.612;37.698;2022-10-18T06:44:52;99627.59;;;6.97;90.75
75428;BME280;64008;55.612;37.698;2022-10-18T06:47:18;99607.78;;;6.90;90.70
75428;BME280;64008;55.612;37.698;2022-10-18T06:49:43;99590.66;;;6.91;91.67
75428;BME280;64008;55.612;37.698;2022-10-18T06:52:09;99571.09;;;6.91;91.67
75428;BME280;64008;55.612;37.698;2022-10-18T06:54:34;99550.72;;;6.91;91.29
75428;BME280;64008;55.612;37.698;2022-10-18T06:57:00;99528.84;;;6.93;91.65
75428;BME280;64008;55.612;37.698;2022-10-18T06:59:27;99527.19;;;6.92;92.73
75428;BME280;64008;55.612;37.698;2022-10-18T07:01:52;99533.13;;;6.90;91.14
75428;BME280;64008;55.612;37.698;2022-10-18T07:04:18;99555.97;;;6.93;91.17
75428;BME280;64008;55.612;37.698;2022-10-18T07:06:43;99551.19;;;6.93;92.32
75428;BME280;64008;55.612;37.698;2022-10-18T07:09:09;99529.03;;;6.88;92.09
75428;BME280;64008;55.612;37.698;2022-10-18T07:11:34;99501.09;;;6.88;91.60
75428;BME280;64008;55.612;37.698;2022-10-18T07:14:01;99495.28;;;6.93;92.78
75428;BME280;64008;55.612;37.698;2022-10-18T07:16:29;99487.72;;;6.94;93.14
75428;BME280;64008;55.612;37.698;2022-10-18T07:18:55;99507.63;;;6.92;92.11
75428;BME280;64008;55.612;37.698;2022-10-18T07:21:23;99465.47;;;6.97;91.93
75428;BME280;64008;55.612;37.698;2022-10-18T07:23:50;99453.47;;;6.97;92.65
75428;BME280;64008;55.612;37.698;2022-10-18T07:26:20;99451.63;;;7.01;93.52
75428;BME280;64008;55.612;37.698;2022-10-18T07:28:51;99430.66;;;7.07;91.88
75428;BME280;64008;55.612;37.698;2022-10-18T07:31:19;99410.03;;;7.11;93.17
75428;BME280;64008;55.612;37.698;2022-10-18T07:33:44;99409.34;;;7.14;91.94
75428;BME280;64008;55.612;37.698;2022-10-18T07:36:11;99407.59;;;7.22;91.84
75428;BME280;64008;55.612;37.698;2022-10-18T07:38:37;99384.41;;;7.21;92.55
75428;BME280;64008;55.612;37.698;2022-10-18T07:41:04;99384.06;;;7.23;92.37
75428;BME280;64008;55.612;37.698;2022-10-18T07:43:31;99359.94;;;7.18;92.70
75428;BME280;64008;55.612;37.698;2022-10-18T07:46:00;99347.81;;;7.26;92.89
75428;BME280;64008;55.612;37.698;2022-10-18T07:48:26;99336.63;;;7.39;92.12
75428;BME280;64008;55.612;37.698;2022-10-18T07:50:52;99322.16;;;7.49;92.88
75428;BME280;64008;55.612;37.698;2022-10-18T07:53:17;99314.56;;;7.49;93.31
75428;BME280;64008;55.612;37.698;2022-10-18T07:55:43;99310.38;;;7.43;91.74
75428;BME280;64008;55.612;37.698;2022-10-18T07:58:09;99288.50;;;7.33;91.71
75428;BME280;64008;55.612;37.698;2022-10-18T08:00:35;99283.06;;;7.24;93.06
75428;BME280;64008;55.612;37.698;2022-10-18T08:03:00;99274.19;;;7.22;91.80
75428;BME280;64008;55.612;37.698;2022-10-18T08:05:27;99268.25;;;7.24;92.47
75428;BME280;64008;55.612;37.698;2022-10-18T08:07:53;99277.34;;;7.21;92.53
75428;BME280;64008;55.612;37.698;2022-10-18T08:10:20;99250.66;;;7.23;92.59
75428;BME280;64008;55.612;37.698;2022-10-18T08:12:46;99230.97;;;7.20;93.29
75428;BME280;64008;55.612;37.698;2022-10-18T08:15:11;99214.53;;;7.18;92.38
75428;BME280;64008;55.612;37.698;2022-10-18T08:17:37;99200.31;;;7.23;92.67
75428;BME280;64008;55.612;37.698;2022-10-18T08:20:03;99180.28;;;7.21;92.01
75428;BME280;64008;55.612;37.698;2022-10-18T08:22:29;99179.00;;;7.19;92.95
75428;BME280;64008;55.612;37.698;2022-10-18T08:24:54;99164.94;;;7.15;93.47
75428;BME280;64008;55.612;37.698;2022-10-18T08:27:20;99158.88;;;7.13;92.73
75428;BME280;64008;55.612;37.698;2022-10-18T08:29:45;99141.75;;;7.15;92.20
75428;BME280;64008;55.612;37.698;2022-10-18T08:32:12;99133.72;;;7.13;92.98
75428;BME280;64008;55.612;37.698;2022-10-18T08:34:37;99108.81;;;7.08;93.03
75428;BME280;64008;55.612;37.698;2022-10-18T08:37:03;99081.91;;;7.04;92.18
75428;BME280;64008;55.612;37.698;2022-10-18T08:39:28;99026.13;;;7.07;93.98
75428;BME280;64008;55.612;37.698;2022-10-18T08:42:08;99031.25;;;7.05;93.21
75428;BME280;64008;55.612;37.698;2022-10-18T08:44:44;99010.78;;;7.01;92.73
75428;BME280;64008;55.612;37.698;2022-10-18T08:47:17;98987.25;;;7.02;92.60
75428;BME280;64008;55.612;37.698;2022-10-18T08:52:33;98954.06;;;7.01;93.68
75428;BME280;64008;55.612;37.698;2022-10-18T08:55:10;98943.25;;;6.99;93.76
75428;BME280;64008;55.612;37.698;2022-10-18T08:57:37;98923.69;;;6.99;92.89
75428;BME280;64008;55.612;37.698;2022-10-18T09:00:23;98903.75;;;7.01;94.79
75428;BME280;64008;55.612;37.698;2022-10-18T09:16:39;98927.66;;;7.14;93.97
75428;BME280;64008;55.612;37.698;2022-10-18T09:21:54;98915.94;;;7.24;95.49
75428;BME280;64008;55.612;37.698;2022-10-18T09:24:31;98915.75;;;7.33;95.17
75428;BME280;64008;55.612;37.698;2022-10-18T09:27:20;98914.75;;;7.41;95.64
75428;BME280;64008;55.612;37.698;2022-10-18T09:35:20;98875.91;;;7.55;95.70
75428;BME280;64008;55.612;37.698;2022-10-18T09:37:47;98869.59;;;7.58;94.78
75428;BME280;64008;55.612;37.698;2022-10-18T09:40:18;98862.53;;;7.64;94.31
75428;BME280;64008;55.612;37.698;2022-10-18T09:43:12;98854.63;;;7.69;95.22
75428;BME280;64008;55.612;37.698;2022-10-18T09:45:43;98850.38;;;7.76;94.72
75428;BME280;64008;55.612;37.698;2022-10-18T09:48:19;98850.97;;;7.85;95.73
75428;BME280;64008;55.612;37.698;2022-10-18T09:51:04;98854.28;;;7.90;94.45
75428;BME280;64008;55.612;37.698;2022-10-18T09:53:50;98856.03;;;7.98;95.12
75428;BME280;64008;55.612;37.698;2022-10-18T09:56:24;98854.16;;;8.02;94.82
75428;BME280;64008;55.612;37.698;2022-10-18T09:58:51;98835.00;;;8.04;95.18
75428;BME280;64008;55.612;37.698;2022-10-18T10:01:28;98835.59;;;8.14;96.17
75428;BME280;64008;55.612;37.698;2022-10-18T10:03:54;98835.72;;;8.21;95.22
75428;BME280;64008;55.612;37.698;2022-10-18T10:06:25;98833.88;;;8.28;94.80
75428;BME280;64008;55.612;37.698;2022-10-18T10:09:00;98833.28;;;8.38;95.66
75428;BME280;64008;55.612;37.698;2022-10-18T10:11:34;98815.50;;;8.50;95.36
75428;BME280;64008;55.612;37.698;2022-10-18T10:14:15;98815.72;;;8.64;95.14
75428;BME280;64008;55.612;37.698;2022-10-18T10:22:26;98815.69;;;8.83;94.97
75428;BME280;64008;55.612;37.698;2022-10-18T10:24:53;98798.97;;;8.91;95.75
75428;BME280;64008;55.612;37.698;2022-10-18T10:29:47;98787.53;;;9.03;95.40
75428;BME280;64008;55.612;37.698;2022-10-18T10:32:16;98802.47;;;9.10;95.95
75428;BME280;64008;55.612;37.698;2022-10-18T10:34:43;98796.59;;;9.19;95.31
75428;BME280;64008;55.612;37.698;2022-10-18T10:37:33;98797.56;;;9.30;95.28
75428;BME280;64008;55.612;37.698;2022-10-18T10:45:23;98777.91;;;9.56;95.48
75428;BME280;64008;55.612;37.698;2022-10-18T10:47:51;98774.00;;;9.65;95.98
75428;BME280;64008;55.612;37.698;2022-10-18T10:50:26;98789.34;;;9.74;95.53
75428;BME280;64008;55.612;37.698;2022-10-18T10:52:53;98803.97;;;9.87;96.93
75428;BME280;64008;55.612;37.698;2022-10-18T10:55:22;98782.00;;;9.96;96.22
75428;BME280;64008;55.612;37.698;2022-10-18T10:57:50;98779.59;;;9.98;95.91
75428;BME280;64008;55.612;37.698;2022-10-18T11:03:08;98777.38;;;10.11;95.66
75428;BME280;64008;55.612;37.698;2022-10-18T11:05:52;98801.59;;;10.22;96.33
75428;BME280;64008;55.612;37.698;2022-10-18T11:08:21;98773.13;;;10.24;96.21
75428;BME280;64008;55.612;37.698;2022-10-18T11:11:02;98779.59;;;10.28;96.66
75428;BME280;64008;55.612;37.698;2022-10-18T11:13:55;98792.16;;;10.38;96.01
75428;BME280;64008;55.612;37.698;2022-10-18T11:16:31;98753.25;;;10.43;95.91
75428;BME280;64008;55.612;37.698;2022-10-18T11:18:59;98726.78;;;10.48;96.39
75428;BME280;64008;55.612;37.698;2022-10-18T11:21:30;98748.13;;;10.52;95.94
75428;BME280;64008;55.612;37.698;2022-10-18T11:23:56;98773.06;;;10.57;95.76
75428;BME280;64008;55.612;37.698;2022-10-18T11:26:48;98771.06;;;10.58;96.67
75428;BME280;64008;55.612;37.698;2022-10-18T11:29:35;98764.25;;;10.59;96.44
75428;BME280;64008;55.612;37.698;2022-10-18T11:40:49;98769.97;;;10.73;96.33
75428;BME280;64008;55.612;37.698;2022-10-18T11:43:23;98770.41;;;10.79;96.34
75428;BME280;64008;55.612;37.698;2022-10-18T11:54:32;98745.66;;;10.98;97.10
75428;BME280;64008;55.612;37.698;2022-10-18T12:00:07;98758.59;;;11.06;96.40
75428;BME280;64008;55.612;37.698;2022-10-18T12:05:16;98760.22;;;11.11;95.98
75428;BME280;64008;55.612;37.698;2022-10-18T12:10:19;98752.25;;;11.17;96.80
75428;BME280;64008;55.612;37.698;2022-10-18T12:12:48;98752.63;;;11.19;95.82
75428;BME280;64008;55.612;37.698;2022-10-18T12:15:20;98765.53;;;11.23;97.51
75428;BME280;64008;55.612;37.698;2022-10-18T12:18:01;98759.53;;;11.28;97.18
75428;BME280;64008;55.612;37.698;2022-10-18T12:20:34;98777.25;;;11.32;97.12
75428;BME280;64008;55.612;37.698;2022-10-18T12:25:58;98746.72;;;11.41;96.14
75428;BME280;64008;55.612;37.698;2022-10-18T12:29:05;98789.81;;;11.45;97.12
75428;BME280;64008;55.612;37.698;2022-10-18T12:31:36;98756.81;;;11.46;96.51
75428;BME280;64008;55.612;37.698;2022-10-18T12:42:04;98764.13;;;11.58;96.00
75428;BME280;64008;55.612;37.698;2022-10-18T12:44:32;98753.28;;;11.60;96.18
75428;BME280;64008;55.612;37.698;2022-10-18T12:47:00;98753.31;;;11.63;96.90
75428;BME280;64008;55.612;37.698;2022-10-18T12:49:37;98765.00;;;11.72;96.90
75428;BME280;64008;55.612;37.698;2022-10-18T12:52:06;98759.44;;;11.79;96.44
75428;BME280;64008;55.612;37.698;2022-10-18T12:55:05;98747.38;;;11.82;96.11
75428;BME280;64008;55.612;37.698;2022-10-18T13:18:57;98753.13;;;12.21;95.88
75428;BME280;64008;55.612;37.698;2022-10-18T13:31:43;98751.88;;;12.08;96.05
75428;BME280;64008;55.612;37.698;2022-10-18T13:34:22;98751.50;;;12.10;96.40
75428;BME280;64008;55.612;37.698;2022-10-18T13:39:29;98735.81;;;12.12;95.97
75428;BME280;64008;55.612;37.698;2022-10-18T13:44:33;98757.94;;;12.10;96.07
75428;BME280;64008;55.612;37.698;2022-10-18T13:55:05;98767.59;;;12.09;95.14
75428;BME280;64008;55.612;37.698;2022-10-18T14:06:26;98808.59;;;11.93;95.00
75428;BME280;64008;55.612;37.698;2022-10-18T14:15:02;98830.63;;;11.76;92.83
75428;BME280;64008;55.612;37.698;2022-10-18T14:17:44;98817.69;;;11.68;92.96
75428;BME280;64008;55.612;37.698;2022-10-18T14:20:27;98815.25;;;11.67;91.34
75428;BME280;64008;55.612;37.698;2022-10-18T14:23:15;98867.94;;;11.66;90.87
75428;BME280;64008;55.612;37.698;2022-10-18T14:25:42;98814.41;;;11.59;91.18
75428;BME280;64008;55.612;37.698;2022-10-18T14:28:12;98815.59;;;11.58;89.97
75428;BME280;64008;55.612;37.698;2022-10-18T14:36:05;98812.38;;;11.52;89.23
75428;BME280;64008;55.612;37.698;2022-10-18T14:38:32;98814.28;;;11.41;89.60
75428;BME280;64008;55.612;37.698;2022-10-18T14:43:40;98804.56;;;11.25;89.17
75428;BME280;64008;55.612;37.698;2022-10-18T14:46:15;98821.00;;;11.23;88.64
75428;BME280;64008;55.612;37.698;2022-10-18T14:48:50;98814.19;;;11.27;87.98
75428;BME280;64008;55.612;37.698;2022-10-18T14:51:16;98826.59;;;11.19;89.01
75428;BME280;64008;55.612;37.698;2022-10-18T14:53:42;98833.03;;;11.16;89.55
75428;BME280;64008;55.612;37.698;2022-10-18T14:56:21;98838.28;;;11.21;89.17
75428;BME280;64008;55.612;37.698;2022-10-18T14:58:47;98847.97;;;11.27;87.49
75428;BME280;64008;55.612;37.698;2022-10-18T15:01:17;98846.00;;;11.31;87.82
75428;BME280;64008;55.612;37.698;2022-10-18T15:03:43;98857.22;;;11.24;88.58
75428;BME280;64008;55.612;37.698;2022-10-18T15:06:15;98880.88;;;11.20;87.70
75428;BME280;64008;55.612;37.698;2022-10-18T15:08:41;98889.31;;;11.20;87.84
75428;BME280;64008;55.612;37.698;2022-10-18T15:11:09;98849.97;;;11.23;87.76
75428;BME280;64008;55.612;37.698;2022-10-18T15:13:43;98854.34;;;11.21;89.00
75428;BME280;64008;55.612;37.698;2022-10-18T15:16:15;98875.19;;;11.12;87.86
75428;BME280;64008;55.612;37.698;2022-10-18T15:18:42;98874.00;;;11.13;86.33
75428;BME280;64008;55.612;37.698;2022-10-18T15:21:21;98871.16;;;11.10;86.94
75428;BME280;64008;55.612;37.698;2022-10-18T15:23:50;98877.13;;;11.01;86.94
75428;BME280;64008;55.612;37.698;2022-10-18T15:26:27;98890.31;;;10.97;87.25
75428;BME280;64008;55.612;37.698;2022-10-18T15:28:56;98870.22;;;10.95;86.92
75428;BME280;64008;55.612;37.698;2022-10-18T15:31:32;98904.00;;;10.99;86.81
75428;BME280;64008;55.612;37.698;2022-10-18T15:34:21;98898.38;;;10.99;86.38
75428;BME280;64008;55.612;37.698;2022-10-18T15:36:49;98934.53;;;10.97;85.26
75428;BME280;64008;55.612;37.698;2022-10-18T15:39:21;98908.44;;;11.00;85.15
75428;BME280;64008;55.612;37.698;2022-10-18T15:41:49;98910.84;;;10.98;85.25
75428;BME280;64008;55.612;37.698;2022-10-18T15:44:27;98922.47;;;10.96;84.19
75428;BME280;64008;55.612;37.698;2022-10-18T15:54:37;98921.63;;;10.92;84.45
75428;BME280;64008;55.612;37.698;2022-10-18T15:57:08;98928.78;;;10.86;85.14
75428;BME280;64008;55.612;37.698;2022-10-18T15:59:34;98925.22;;;10.89;83.63
75428;BME280;64008;55.612;37.698;2022-10-18T16:02:02;98927.19;;;10.85;83.38
75428;BME280;64008;55.612;37.698;2022-10-18T16:04:32;98916.69;;;10.82;83.19
75428;BME280;64008;55.612;37.698;2022-10-18T16:06:58;98920.63;;;10.74;84.70
75428;BME280;64008;55.612;37.698;2022-10-18T16:09:27;98926.94;;;10.64;85.49
75428;BME280;64008;55.612;37.698;2022-10-18T16:11:53;98942.66;;;10.68;85.40